createdAt,value
2022-12-29T10:55:39.188Z,22.38
2022-12-29T10:57:19.177Z,25.48
2022-12-29T10:58:53.649Z,28.60
2022-12-29T11:00:26.913Z,25.00
2022-12-29T11:02:18.497Z,18.67
2022-12-29T11:04:03.128Z,23.02
2022-12-29T11:05:41.668Z,15.00
2022-12-29T11:07:19.872Z,26.92
2022-12-29T11:08:58.899Z,20.42
2022-12-29T11:10:40.856Z,15.38
2022-12-29T11:12:26.531Z,20.42
2022-12-29T11:14:04.053Z,23.70
2022-12-29T11:15:42.776Z,22.42
2022-12-29T11:17:18.277Z,28.42
2022-12-29T11:18:52.524Z,31.95
2022-12-29T11:20:35.659Z,30.45
2022-12-29T11:22:17.068Z,23.42
2022-12-29T11:23:59.109Z,27.25
2022-12-29T11:25:32.394Z,27.80
2022-12-29T11:27:18.587Z,24.20
2022-12-29T11:29:22.292Z,23.98
2022-12-29T11:31:01.962Z,22.73
2022-12-29T11:32:36.095Z,38.78
2022-12-29T11:34:09.808Z,16.70
2022-12-29T11:35:45.582Z,19.77
2022-12-29T11:37:20.794Z,18.20
2022-12-29T11:38:58.436Z,19.17
2022-12-29T11:40:32.707Z,18.02
2022-12-29T11:42:10.565Z,24.30
2022-12-29T11:43:48.682Z,17.77
2022-12-29T11:45:25.094Z,18.02
2022-12-29T11:46:59.011Z,21.63
2022-12-29T11:48:35.884Z,18.02
2022-12-29T11:50:10.414Z,17.92
2022-12-29T11:51:48.903Z,17.35
2022-12-29T11:53:25.863Z,18.75
2022-12-29T11:55:00.971Z,20.52
2022-12-29T11:56:40.728Z,18.83
2022-12-29T11:58:18.069Z,23.50
2022-12-29T11:59:57.166Z,147.73
2022-12-29T12:01:41.110Z,40.75
2022-12-29T12:03:22.627Z,25.88
2022-12-29T12:05:02.856Z,19.77
2022-12-29T12:06:41.796Z,18.73
2022-12-29T12:08:22.622Z,23.45
2022-12-29T12:10:07.015Z,27.48
2022-12-29T12:11:46.584Z,35.88
2022-12-29T12:13:28.193Z,59.63
2022-12-29T12:15:05.633Z,48.83
2022-12-29T12:16:55.654Z,31.00
2022-12-29T12:18:40.498Z,27.65
2022-12-29T12:20:22.993Z,33.22
2022-12-29T12:22:02.600Z,29.27
2022-12-29T12:23:47.341Z,18.27
2022-12-29T12:25:25.444Z,43.90
2022-12-29T12:27:03.854Z,40.42
2022-12-29T12:28:42.840Z,35.45
2022-12-29T12:30:21.465Z,23.25
2022-12-29T12:32:00.038Z,26.60
2022-12-29T12:33:39.906Z,31.40
2022-12-29T12:35:21.368Z,43.63
2022-12-29T12:37:20.129Z,28.67
2022-12-29T12:39:01.195Z,39.00
2022-12-29T12:40:49.461Z,28.25
2022-12-29T12:42:39.568Z,21.10
2022-12-29T12:44:21.848Z,24.42
2022-12-29T12:46:12.168Z,23.25
2022-12-29T12:48:02.973Z,25.95
2022-12-29T12:49:54.917Z,31.25
2022-12-29T12:51:40.127Z,33.55
2022-12-29T12:53:39.041Z,32.83
2022-12-29T12:55:44.744Z,27.00
2022-12-29T12:57:24.996Z,23.75
2022-12-29T12:59:09.810Z,26.90
2022-12-29T13:00:57.563Z,22.73
2022-12-29T13:02:40.600Z,21.63
2022-12-29T13:04:46.487Z,32.53
2022-12-29T13:06:31.063Z,28.60
2022-12-29T13:08:46.058Z,25.55
2022-12-29T13:10:31.585Z,28.67
2022-12-29T13:12:19.425Z,26.60
2022-12-29T13:14:12.397Z,28.45
2022-12-29T13:15:53.365Z,30.83
2022-12-29T13:17:32.663Z,31.08
2022-12-29T13:19:16.057Z,98.25
2022-12-29T13:20:56.090Z,29.70
2022-12-29T13:22:36.580Z,36.90
2022-12-29T13:24:18.447Z,39.22
2022-12-29T13:25:58.127Z,35.40
2022-12-29T13:27:39.864Z,34.22
2022-12-29T13:29:20.924Z,33.00
2022-12-29T13:31:03.030Z,29.83
2022-12-29T13:32:55.907Z,27.33
2022-12-29T13:34:40.800Z,27.63
2022-12-29T13:36:24.818Z,28.40
2022-12-29T13:38:03.139Z,37.70
2022-12-29T13:39:39.975Z,21.77
2022-12-29T13:41:18.937Z,19.70
2022-12-29T13:42:53.776Z,19.05
2022-12-29T13:44:36.346Z,21.23
2022-12-29T13:46:15.245Z,29.92
2022-12-29T13:47:55.217Z,69.53
2022-12-29T13:49:29.821Z,38.53
2022-12-29T13:51:05.284Z,25.65
2022-12-29T13:52:43.207Z,23.33
2022-12-29T13:54:23.807Z,92.00
2022-12-29T13:56:06.840Z,93.10
2022-12-29T13:57:49.826Z,66.28
2022-12-29T13:59:29.873Z,47.85
2022-12-29T14:01:10.660Z,36.17
2022-12-29T14:03:02.102Z,45.05
2022-12-29T14:04:36.158Z,27.38
2022-12-29T14:06:21.597Z,26.92
2022-12-29T14:08:00.671Z,22.10
2022-12-29T14:09:47.368Z,39.00
2022-12-29T14:11:25.499Z,326.42
2022-12-29T14:13:06.232Z,90.32
2022-12-29T14:14:41.110Z,139.32
2022-12-29T14:16:32.413Z,39.15
2022-12-29T14:18:16.608Z,79.05
2022-12-29T14:19:55.551Z,101.00
2022-12-29T14:21:31.370Z,100.97
2022-12-29T14:23:19.904Z,70.03
2022-12-29T14:24:53.319Z,45.58
2022-12-29T14:26:38.887Z,54.22
2022-12-29T14:28:24.675Z,41.38
2022-12-29T14:29:57.931Z,45.70
2022-12-29T14:31:42.308Z,45.55
2022-12-29T14:33:16.919Z,39.17
2022-12-29T14:34:52.826Z,50.10
2022-12-29T14:36:35.285Z,47.28
2022-12-29T14:38:28.315Z,37.75
2022-12-29T14:40:07.823Z,47.58
2022-12-29T14:41:42.218Z,65.25
2022-12-29T14:43:20.414Z,67.82
2022-12-29T14:44:58.480Z,76.90
2022-12-29T14:46:46.985Z,77.85
2022-12-29T14:48:42.936Z,69.95
2022-12-29T14:50:18.944Z,68.63
2022-12-29T14:51:55.558Z,63.03
2022-12-29T14:53:48.464Z,66.47
2022-12-29T14:55:39.549Z,72.78
2022-12-29T14:57:34.983Z,47.72
2022-12-29T14:59:13.181Z,47.60
2022-12-29T15:00:47.723Z,61.58
2022-12-29T15:02:27.658Z,69.10
2022-12-29T15:04:07.343Z,54.97
2022-12-29T15:05:47.133Z,46.00
2022-12-29T15:07:21.826Z,69.85
2022-12-29T15:09:02.878Z,59.05
2022-12-29T15:10:45.371Z,81.95
2022-12-29T15:12:24.790Z,88.20
2022-12-29T15:13:58.511Z,77.28
2022-12-29T15:15:38.555Z,82.30
2022-12-29T15:17:24.579Z,83.03
2022-12-29T15:18:58.177Z,84.25
2022-12-29T15:20:32.948Z,88.65
2022-12-29T15:22:06.600Z,83.40
2022-12-29T15:23:40.304Z,89.25
2022-12-29T15:25:18.665Z,81.85
2022-12-29T15:26:53.963Z,90.22
2022-12-29T15:28:28.653Z,96.38
2022-12-29T15:30:03.780Z,79.45
2022-12-29T15:31:49.233Z,80.57
2022-12-29T15:33:25.286Z,91.95
2022-12-29T15:35:01.204Z,117.50
2022-12-29T15:36:40.561Z,96.18
2022-12-29T15:38:18.421Z,44.50
2022-12-29T15:39:52.241Z,67.65
2022-12-29T15:41:55.554Z,70.35
2022-12-29T15:43:49.380Z,58.80
2022-12-29T15:45:23.145Z,49.17
2022-12-29T15:46:56.971Z,58.97
2022-12-29T15:48:30.896Z,63.28
2022-12-29T15:50:07.925Z,57.90
2022-12-29T15:51:42.810Z,62.80
2022-12-29T15:53:25.810Z,54.38
2022-12-29T15:55:01.550Z,49.55
2022-12-29T15:56:36.230Z,34.35
2022-12-29T15:58:22.345Z,49.40
2022-12-29T15:59:56.039Z,50.15
2022-12-29T16:01:32.496Z,51.95
2022-12-29T16:03:08.770Z,53.10
2022-12-29T16:05:09.297Z,69.85
2022-12-29T16:06:39.760Z,65.15
2022-12-29T16:08:29.936Z,59.13
2022-12-29T16:10:04.241Z,51.25
2022-12-29T16:11:40.961Z,48.03
2022-12-29T16:13:40.499Z,96.53
2022-12-29T16:15:16.418Z,121.15
2022-12-29T16:16:51.726Z,116.88
2022-12-29T16:18:29.429Z,128.25
2022-12-29T16:20:17.973Z,109.05
2022-12-29T16:21:52.313Z,98.28
2022-12-29T16:23:29.133Z,98.35
2022-12-29T16:25:05.695Z,92.78
2022-12-29T16:26:40.249Z,95.28
2022-12-29T16:28:20.898Z,110.78
2022-12-29T16:29:58.467Z,103.70
2022-12-29T16:31:37.291Z,104.43
2022-12-29T16:33:48.987Z,126.22
2022-12-29T16:35:24.715Z,160.52
2022-12-29T16:36:59.654Z,192.18
2022-12-29T16:38:35.728Z,181.18
2022-12-29T16:40:32.463Z,142.40
2022-12-29T16:42:38.528Z,158.80
2022-12-29T16:44:37.959Z,156.93
2022-12-29T16:46:29.493Z,140.65
2022-12-29T16:48:20.955Z,156.23
2022-12-29T16:50:15.529Z,130.75
2022-12-29T16:51:49.824Z,80.28
2022-12-29T16:53:27.400Z,63.80
2022-12-29T16:55:02.353Z,43.63
2022-12-29T16:56:39.776Z,43.95
2022-12-29T16:58:20.692Z,33.78
2022-12-29T16:59:57.275Z,38.97
2022-12-29T17:01:31.771Z,17.35
2022-12-29T17:03:05.903Z,38.00
2022-12-29T17:04:39.508Z,27.25
2022-12-29T17:06:17.216Z,35.10
2022-12-29T17:07:52.325Z,42.78
2022-12-29T17:09:27.512Z,35.88
2022-12-29T17:11:18.708Z,37.47
2022-12-29T17:12:52.154Z,38.28
2022-12-29T17:14:45.454Z,36.80
2022-12-29T17:16:19.010Z,52.45
2022-12-29T17:17:55.765Z,211.35
2022-12-29T17:19:35.118Z,65.15
2022-12-29T17:21:11.094Z,38.40
2022-12-29T17:22:47.378Z,41.92
2022-12-29T17:24:20.929Z,91.03
2022-12-29T17:25:55.487Z,99.43
2022-12-29T17:27:32.532Z,89.32
2022-12-29T17:29:05.780Z,88.50
2022-12-29T17:30:42.284Z,69.03
2022-12-29T17:32:16.723Z,73.45
2022-12-29T17:33:50.316Z,53.83
2022-12-29T17:35:24.245Z,40.25
2022-12-29T17:36:56.409Z,42.80
2022-12-29T17:38:36.038Z,48.35
2022-12-29T17:40:15.403Z,46.30
2022-12-29T17:41:49.296Z,44.33
2022-12-29T17:43:23.316Z,34.42
2022-12-29T17:44:57.359Z,34.05
2022-12-29T17:46:31.983Z,35.10
2022-12-29T17:48:12.924Z,32.58
2022-12-29T17:49:47.967Z,37.35
2022-12-29T17:51:23.933Z,32.55
2022-12-29T17:53:01.581Z,44.30
2022-12-29T17:54:36.140Z,41.83
2022-12-29T17:56:10.338Z,46.17
2022-12-29T17:57:46.594Z,42.70
2022-12-29T17:59:20.778Z,178.55
2022-12-29T18:00:55.999Z,49.03
2022-12-29T18:02:32.717Z,53.95
2022-12-29T18:04:06.542Z,42.22
2022-12-29T18:05:40.006Z,41.28
2022-12-29T18:07:13.405Z,30.52
2022-12-29T18:08:46.595Z,44.65
2022-12-29T18:10:20.478Z,30.48
2022-12-29T18:11:54.020Z,34.15
2022-12-29T18:13:41.851Z,31.85
2022-12-29T18:15:21.838Z,30.98
2022-12-29T18:16:56.584Z,28.55
2022-12-29T18:18:31.329Z,33.17
2022-12-29T18:20:05.161Z,39.85
2022-12-29T18:21:41.186Z,43.38
2022-12-29T18:23:21.347Z,45.13
2022-12-29T18:24:54.736Z,44.70
2022-12-29T18:26:31.978Z,53.58
2022-12-29T18:28:05.729Z,42.70
2022-12-29T18:29:39.449Z,38.00
2022-12-29T18:31:19.790Z,42.92
2022-12-29T18:32:55.771Z,40.55
2022-12-29T18:34:30.898Z,43.85
2022-12-29T18:36:06.919Z,43.13
2022-12-29T18:37:40.658Z,38.47
2022-12-29T18:39:14.491Z,45.13
2022-12-29T18:40:49.048Z,48.08
2022-12-29T18:42:22.501Z,66.25
2022-12-29T18:43:59.047Z,66.18
2022-12-29T18:45:34.776Z,58.53
2022-12-29T18:47:08.510Z,56.17
2022-12-29T18:48:42.324Z,65.70
2022-12-29T18:50:17.826Z,71.22
2022-12-29T18:51:51.131Z,69.45
2022-12-29T18:53:26.081Z,155.15
2022-12-29T18:54:59.314Z,64.38
2022-12-29T18:56:32.697Z,58.80
2022-12-29T18:58:06.693Z,61.55
2022-12-29T18:59:41.403Z,65.15
2022-12-29T19:01:22.639Z,57.28
2022-12-29T19:02:56.792Z,53.80
2022-12-29T19:04:31.141Z,56.70
2022-12-29T19:06:06.587Z,116.82
2022-12-29T19:07:39.916Z,104.80
2022-12-29T19:09:14.017Z,82.35
2022-12-29T19:10:48.161Z,57.05
2022-12-29T19:12:26.545Z,46.25
2022-12-29T19:14:01.663Z,51.75
2022-12-29T19:15:38.459Z,48.92
2022-12-29T19:17:13.587Z,54.70
2022-12-29T19:18:58.241Z,50.15
2022-12-29T19:20:43.387Z,43.30
2022-12-29T19:22:18.341Z,53.33
2022-12-29T19:23:52.203Z,101.55
2022-12-29T19:25:26.190Z,107.18
2022-12-29T19:26:59.700Z,72.13
2022-12-29T19:28:33.479Z,65.18
2022-12-29T19:30:07.819Z,40.47
2022-12-29T19:31:41.584Z,45.33
2022-12-29T19:33:15.542Z,64.32
2022-12-29T19:34:50.174Z,49.53
2022-12-29T19:36:25.381Z,37.22
2022-12-29T19:38:00.535Z,38.08
2022-12-29T19:39:33.885Z,43.08
2022-12-29T19:41:09.154Z,49.85
2022-12-29T19:42:42.420Z,46.08
2022-12-29T19:44:17.656Z,54.78
2022-12-29T19:45:51.524Z,51.45
2022-12-29T19:47:30.056Z,58.33
2022-12-29T19:49:04.961Z,53.63
2022-12-29T19:50:39.258Z,55.65
2022-12-29T19:52:12.664Z,111.38
2022-12-29T19:53:48.437Z,72.68
2022-12-29T19:55:21.893Z,71.07
2022-12-29T19:56:55.222Z,55.10
2022-12-29T19:58:28.549Z,48.88
2022-12-29T20:00:01.758Z,28.13
2022-12-29T20:01:45.429Z,36.42
2022-12-29T20:03:19.410Z,48.38
2022-12-29T20:04:52.825Z,46.28
2022-12-29T20:06:26.041Z,48.63
2022-12-29T20:07:59.345Z,27.83
2022-12-29T20:09:34.346Z,25.88
2022-12-29T20:11:09.760Z,22.00
2022-12-29T20:12:43.126Z,17.05
2022-12-29T20:14:16.301Z,25.77
2022-12-29T20:15:49.934Z,25.02
2022-12-29T20:17:54.050Z,32.67
2022-12-29T20:19:19.666Z,21.17
2022-12-29T20:20:53.151Z,29.20
2022-12-29T20:22:26.576Z,34.35
2022-12-29T20:23:59.895Z,37.95
2022-12-29T20:25:49.841Z,26.73
2022-12-29T20:27:23.415Z,34.97
2022-12-29T20:28:58.759Z,25.50
2022-12-29T20:30:31.894Z,28.70
2022-12-29T20:32:05.513Z,37.53
2022-12-29T20:33:39.217Z,50.15
2022-12-29T20:35:13.938Z,39.85
2022-12-29T20:36:49.258Z,46.22
2022-12-29T20:38:22.953Z,40.10
2022-12-29T20:39:56.462Z,34.53
2022-12-29T20:41:31.886Z,40.83
2022-12-29T20:43:05.118Z,29.65
2022-12-29T20:44:38.995Z,26.38
2022-12-29T20:46:20.263Z,25.38
2022-12-29T20:47:54.876Z,24.20
2022-12-29T20:49:28.629Z,31.42
2022-12-29T20:51:02.021Z,38.00
2022-12-29T20:52:35.588Z,36.60
2022-12-29T20:54:08.864Z,33.25
2022-12-29T20:55:42.086Z,39.78
2022-12-29T20:57:16.866Z,52.17
2022-12-29T21:00:44.635Z,42.28
2022-12-29T21:02:20.779Z,48.72
2022-12-29T21:03:54.723Z,49.58
2022-12-29T21:05:28.879Z,44.42
2022-12-29T21:07:02.099Z,57.00
2022-12-29T21:08:36.414Z,53.38
2022-12-29T21:10:09.962Z,48.38
2022-12-29T21:11:43.096Z,38.83
2022-12-29T21:13:18.405Z,36.03
2022-12-29T21:14:51.620Z,44.42
2022-12-29T21:16:24.873Z,28.15
2022-12-29T21:17:58.362Z,32.53
2022-12-29T21:19:31.042Z,43.65
2022-12-29T21:21:07.014Z,32.63
2022-12-29T21:22:40.462Z,35.35
2022-12-29T21:24:13.668Z,43.47
2022-12-29T21:25:46.770Z,70.95
2022-12-29T21:27:20.104Z,108.05
2022-12-29T21:28:55.399Z,39.63
2022-12-29T21:30:28.625Z,61.35
2022-12-29T21:32:06.376Z,45.15
2022-12-29T21:33:40.321Z,42.40
2022-12-29T21:35:13.720Z,31.30
2022-12-29T21:36:46.850Z,34.35
2022-12-29T21:38:19.989Z,50.47
2022-12-29T21:39:53.154Z,23.63
2022-12-29T21:41:26.924Z,25.73
2022-12-29T21:43:00.398Z,27.92
2022-12-29T21:44:48.797Z,28.90
2022-12-29T21:46:24.449Z,30.15
2022-12-29T21:48:17.500Z,27.42
2022-12-29T21:49:50.622Z,25.85
2022-12-29T21:51:41.088Z,21.33
2022-12-29T21:53:14.543Z,20.48
2022-12-29T21:55:01.440Z,28.77
2022-12-29T21:56:34.823Z,32.33
2022-12-29T21:58:25.325Z,24.33
2022-12-29T22:00:17.580Z,24.52
2022-12-29T22:02:08.429Z,26.63
2022-12-29T22:03:59.398Z,28.48
2022-12-29T22:05:50.016Z,24.63
2022-12-29T22:07:41.000Z,21.98
2022-12-29T22:09:31.548Z,23.13
2022-12-29T22:11:25.949Z,24.30
2022-12-29T22:13:01.047Z,31.98
2022-12-29T22:14:34.266Z,56.65
2022-12-29T22:16:11.577Z,48.90
2022-12-29T22:17:48.739Z,53.10
2022-12-29T22:19:22.706Z,58.25
2022-12-29T22:20:55.837Z,51.58
2022-12-29T22:22:29.023Z,49.65
2022-12-29T22:24:02.111Z,42.90
2022-12-29T22:25:35.556Z,45.47
2022-12-29T22:27:07.742Z,59.45
2022-12-29T22:28:43.210Z,46.08
2022-12-29T22:30:16.421Z,39.88
2022-12-29T22:31:51.118Z,41.63
2022-12-29T22:33:24.355Z,53.80
2022-12-29T22:34:58.361Z,46.72
2022-12-29T22:36:32.466Z,48.05
2022-12-29T22:38:05.800Z,53.58
2022-12-29T22:39:38.919Z,49.88
2022-12-29T22:41:12.101Z,55.20
2022-12-29T22:42:44.259Z,63.15
2022-12-29T22:44:17.787Z,100.03
2022-12-29T22:45:50.944Z,128.40
2022-12-29T22:47:26.016Z,75.07
2022-12-29T22:48:59.421Z,59.30
2022-12-29T22:50:32.865Z,46.65
2022-12-29T22:52:06.752Z,54.90
2022-12-29T22:53:41.060Z,47.78
2022-12-29T22:55:14.253Z,57.72
2022-12-29T22:56:47.800Z,50.10
2022-12-29T22:58:20.965Z,42.92
2022-12-29T22:59:54.175Z,40.83
2022-12-29T23:01:27.525Z,34.97
2022-12-29T23:03:02.599Z,40.25
2022-12-29T23:06:30.655Z,29.92
2022-12-29T23:08:04.103Z,29.42
2022-12-29T23:09:37.241Z,38.60
2022-12-29T23:11:12.428Z,26.73
2022-12-29T23:12:45.808Z,22.25
2022-12-29T23:14:18.255Z,21.55
2022-12-29T23:15:51.481Z,26.52
2022-12-29T23:17:25.393Z,34.42
2022-12-29T23:18:59.980Z,32.42
2022-12-29T23:20:36.745Z,35.35
2022-12-29T23:22:09.902Z,33.22
2022-12-29T23:23:53.847Z,38.65
2022-12-29T23:25:27.004Z,33.47
2022-12-29T23:26:59.391Z,39.60
2022-12-29T23:28:32.975Z,34.35
2022-12-29T23:30:07.468Z,28.90
2022-12-29T23:31:41.566Z,31.20
2022-12-29T23:33:14.807Z,35.50
2022-12-29T23:34:49.373Z,29.30
2022-12-29T23:36:23.399Z,36.50
2022-12-29T23:37:56.608Z,36.00
2022-12-29T23:39:29.756Z,26.95
2022-12-29T23:41:01.929Z,29.40
2022-12-29T23:42:35.035Z,24.80
2022-12-29T23:44:08.616Z,23.38
2022-12-29T23:45:46.040Z,24.85
2022-12-29T23:47:22.493Z,22.33
2022-12-29T23:48:56.295Z,25.20
2022-12-29T23:50:31.036Z,25.00
2022-12-29T23:52:04.233Z,22.08
2022-12-29T23:53:39.788Z,22.65
2022-12-29T23:55:13.115Z,26.50
2022-12-29T23:56:46.256Z,24.27
2022-12-29T23:58:19.387Z,21.98
2022-12-29T23:59:52.637Z,23.85
